Observation data for Abernathy on 03/11/2018      Previous  Date  Next       Current Mesonet Observations  Soil Data  Daily Summary Page  Observations in Plain Language
KARS 110600Z 02022G27KT 14/M04 A2995 RMK A01 T01411035  RH  030%=      5-min Rain = 0
KARS 110605Z 02021G27KT 14/M04 A2996 RMK A01 T01401040  RH  028%=      5-min Rain = 0
KARS 110610Z 02022G30KT 14/M05 A2996 RMK A01 T01381046  RH  028%=      5-min Rain = 0
KARS 110615Z 02020G26KT 13/M05 A2996 RMK A01 T01341049  RH  028%=      5-min Rain = 0
KARS 110620Z 02024G30KT 13/M05 A2997 RMK A01 T01301048  RH  029%=      5-min Rain = 0
KARS 110625Z 02025G32KT 13/M05 A2997 RMK A01 T01281047  RH  029%=      5-min Rain = 0
KARS 110630Z 02023G29KT 13/M05 A2997 RMK A01 T01261047  RH  030%=      5-min Rain = 0
KARS 110635Z 02023G34KT 12/M05 A2998 RMK A01 T01241048  RH  030%=      5-min Rain = 0
KARS 110640Z 03024G31KT 12/M05 A2998 RMK A01 T01241049  RH  030%=      5-min Rain = 0
KARS 110645Z 03026G34KT 13/M05 A2999 RMK A01 T01261050  RH  029%=      5-min Rain = 0
KARS 110650Z 03025G33KT 13/M05 A30 RMK A01 T01271050  RH  029%=      5-min Rain = 0
KARS 110655Z 03025G32KT 13/M05 A30 RMK A01 T01271050  RH  029%=      5-min Rain = 0
KARS 110700Z 03029G38KT 13/M05 A30 RMK A01 T01261051  RH  029%=      5-min Rain = 0
KARS 110705Z 03026G37KT 13/M05 A30 RMK A01 T01251051  RH  029%=      5-min Rain = 0
KARS 110710Z 03023G30KT 12/M05 A3001 RMK A01 T01241051  RH  029%=      5-min Rain = 0
KARS 110715Z 03023G29KT 12/M05 A3002 RMK A01 T01231051  RH  029%=      5-min Rain = 0
KARS 110720Z 02024G30KT 12/M05 A3002 RMK A01 T01221050  RH  030%=      5-min Rain = 0
KARS 110725Z 02025G31KT 12/M05 A3002 RMK A01 T01211048  RH  030%=      5-min Rain = 0
KARS 110730Z 03025G34KT 12/M05 A3002 RMK A01 T01211047  RH  031%=      5-min Rain = 0
KARS 110735Z 03024G34KT 12/M05 A3003 RMK A01 T01201045  RH  031%=      5-min Rain = 0
KARS 110740Z 03022G29KT 12/M04 A3003 RMK A01 T01191044  RH  032%=      5-min Rain = 0
KARS 110745Z 03026G34KT 12/M04 A3003 RMK A01 T01181042  RH  033%=      5-min Rain = 0
KARS 110750Z 03024G35KT 12/M04 A3003 RMK A01 T01161041  RH  033%=      5-min Rain = 0
KARS 110755Z 03024G30KT 11/M04 A3004 RMK A01 T01141040  RH  034%=      5-min Rain = 0
KARS 110800Z 03025KT 11/M04 A3004 RMK A01 T01131038  RH  035%=      5-min Rain = 0
KARS 110805Z 03024G29KT 11/M04 A3004 RMK A01 T01121036  RH  035%=      5-min Rain = 0
KARS 110810Z 03026G36KT 11/M03 A3004 RMK A01 T01111034  RH  036%=      5-min Rain = 0
KARS 110815Z 03025G32KT 11/M03 A3004 RMK A01 T01101033  RH  037%=      5-min Rain = 0
KARS 110820Z 03024G33KT 11/M03 A3005 RMK A01 T01101033  RH  037%=      5-min Rain = 0
KARS 110825Z 03023G30KT 11/M03 A3005 RMK A01 T01091033  RH  037%=      5-min Rain = 0
KARS 110830Z 03025G31KT 11/M03 A3005 RMK A01 T01081034  RH  037%=      5-min Rain = 0
KARS 110835Z 03024G32KT 11/M03 A3005 RMK A01 T01071034  RH  037%=      5-min Rain = 0
KARS 110840Z 03022G31KT 11/M03 A3005 RMK A01 T01071034  RH  037%=      5-min Rain = 0
KARS 110845Z 03023G30KT 11/M03 A3005 RMK A01 T01071034  RH  037%=      5-min Rain = 0
KARS 110850Z 03023G29KT 11/M03 A3006 RMK A01 T01061033  RH  038%=      5-min Rain = 0
KARS 110855Z 03024G30KT 11/M03 A3006 RMK A01 T01061034  RH  038%=      5-min Rain = 0
KARS 110900Z 03023G34KT 11/M03 A3006 RMK A01 T01051034  RH  038%=      5-min Rain = 0
KARS 110905Z 03022G30KT 11/M03 A3006 RMK A01 T01051034  RH  038%=      5-min Rain = 0
KARS 110910Z 03023G29KT 10/M04 A3006 RMK A01 T01041035  RH  038%=      5-min Rain = 0
KARS 110915Z 03023G29KT 11/M04 A3006 RMK A01 T01051035  RH  037%=      5-min Rain = 0
KARS 110920Z 03022G31KT 10/M04 A3006 RMK A01 T01041036  RH  037%=      5-min Rain = 0
KARS 110925Z 03020G26KT 10/M04 A3006 RMK A01 T01031037  RH  037%=      5-min Rain = 0
KARS 110930Z 03021G27KT 10/M04 A3007 RMK A01 T01031038  RH  037%=      5-min Rain = 0
KARS 110935Z 03021G27KT 10/M04 A3007 RMK A01 T01031039  RH  037%=      5-min Rain = 0
KARS 110940Z 03020G28KT 10/M04 A3007 RMK A01 T01031040  RH  037%=      5-min Rain = 0
KARS 110945Z 03020G27KT 10/M04 A3007 RMK A01 T01021042  RH  036%=      5-min Rain = 0
KARS 110950Z 03019G24KT 10/M04 A3007 RMK A01 T01021044  RH  036%=      5-min Rain = 0
KARS 110955Z 03019G26KT 10/M05 A3007 RMK A01 T01011048  RH  035%=      5-min Rain = 0
KARS 111000Z 03021G28KT 10/M05 A3007 RMK A01 T01011052  RH  034%=      5-min Rain = 0
KARS 111005Z 03020G25KT 10/M06 A3007 RMK A01 T01011055  RH  033%=      5-min Rain = 0
KARS 111010Z 03021G26KT 10/M06 A3007 RMK A01 T01011057  RH  033%=      5-min Rain = 0
KARS 111015Z 03021G28KT 10/M06 A3008 RMK A01 T01001059  RH  032%=      5-min Rain = 0
KARS 111020Z 03019G26KT 10/M06 A3008 RMK A01 T01001060  RH  032%=      5-min Rain = 0
KARS 111025Z 03020G27KT 10/M06 A3009 RMK A01 T01001061  RH  032%=      5-min Rain = 0
KARS 111030Z 03024G30KT 10/M06 A3008 RMK A01 T01001061  RH  032%=      5-min Rain = 0
KARS 111035Z 03020G28KT 10/M06 A3009 RMK A01 T00991061  RH  032%=      5-min Rain = 0
KARS 111040Z 03025G30KT 10/M06 A3009 RMK A01 T00991058  RH  033%=      5-min Rain = 0
KARS 111045Z 03025G31KT 10/M06 A3009 RMK A01 T00981055  RH  034%=      5-min Rain = 0
KARS 111050Z 03023G30KT 10/M05 A3009 RMK A01 T00971054  RH  034%=      5-min Rain = 0
KARS 111055Z 03023G30KT 10/M05 A3009 RMK A01 T00961052  RH  035%=      5-min Rain = 0
KARS 111100Z 03023G31KT 10/M05 A3009 RMK A01 T00951049  RH  036%=      5-min Rain = 0
KARS 111105Z 03020G26KT 09/M05 A301 RMK A01 T00941047  RH  037%=      5-min Rain = 0
KARS 111110Z 03019G25KT 09/M05 A301 RMK A01 T00931048  RH  037%=      5-min Rain = 0
KARS 111115Z 03024G31KT 09/M05 A301 RMK A01 T00921050  RH  036%=      5-min Rain = 0
KARS 111120Z 03024G32KT 09/M05 A301 RMK A01 T00911050  RH  037%=      5-min Rain = 0
KARS 111125Z 03024G31KT 09/M05 A3011 RMK A01 T00901049  RH  037%=      5-min Rain = 0
KARS 111130Z 03023G29KT 09/M05 A3011 RMK A01 T00891048  RH  037%=      5-min Rain = 0
KARS 111135Z 03018G23KT 09/M05 A3011 RMK A01 T00881048  RH  038%=      5-min Rain = 0
KARS 111140Z 03022G29KT 09/M05 A3011 RMK A01 T00871047  RH  038%=      5-min Rain = 0
KARS 111145Z 03023G28KT 09/M05 A3012 RMK A01 T00861047  RH  039%=      5-min Rain = 0
KARS 111150Z 03025G31KT 09/M05 A3012 RMK A01 T00851046  RH  039%=      5-min Rain = 0
KARS 111155Z 03022G28KT 09/M05 A3013 RMK A01 T00851045  RH  040%=      5-min Rain = 0
KARS 111200Z 02019G26KT 08/M04 A3013 RMK A01 T00831044  RH  040%=      5-min Rain = 0
KARS 111205Z 02021G29KT 08/M04 A3013 RMK A01 T00821043  RH  041%=      5-min Rain = 0
KARS 111210Z 03022G29KT 08/M04 A3013 RMK A01 T00801043  RH  042%=      5-min Rain = 0
KARS 111215Z 02019G26KT 08/M04 A3014 RMK A01 T00791043  RH  042%=      5-min Rain = 0
KARS 111220Z 02023KT 08/M04 A3014 RMK A01 T00781044  RH  042%=      5-min Rain = 0
KARS 111225Z 02018KT 08/M04 A3015 RMK A01 T00761044  RH  042%=      5-min Rain = 0
KARS 111230Z 02019G26KT 08/M05 A3015 RMK A01 T00751046  RH  042%=      5-min Rain = 0
KARS 111235Z 02020G25KT 07/M05 A3015 RMK A01 T00731047  RH  042%=      5-min Rain = 0
KARS 111240Z 02018G23KT 07/M05 A3015 RMK A01 T00711048  RH  043%=      5-min Rain = 0
KARS 111245Z 02019G25KT 07/M05 A3016 RMK A01 T00691050  RH  042%=      5-min Rain = 0
KARS 111250Z 02019G25KT 07/M05 A3017 RMK A01 T00681053  RH  042%=      5-min Rain = 0
KARS 111255Z 01018G23KT 07/M06 A3017 RMK A01 T00661055  RH  042%=      5-min Rain = 0
KARS 111300Z 02020G28KT 07/M06 A3017 RMK A01 T00651057  RH  041%=      5-min Rain = 0
KARS 111305Z 02019G25KT 06/M06 A3018 RMK A01 T00641058  RH  041%=      5-min Rain = 0
KARS 111310Z 02020G26KT 06/M06 A3018 RMK A01 T00631059  RH  041%=      5-min Rain = 0
KARS 111315Z 02020G25KT 06/M06 A3018 RMK A01 T00631061  RH  041%=      5-min Rain = 0
KARS 111320Z 02019KT 06/M06 A3018 RMK A01 T00631061  RH  041%=      5-min Rain = 0
KARS 111325Z 02019G25KT 06/M06 A3018 RMK A01 T00621062  RH  041%=      5-min Rain = 0
KARS 111330Z 02018G26KT 06/M06 A3019 RMK A01 T00621062  RH  041%=      5-min Rain = 0
KARS 111335Z 02018KT 06/M06 A3019 RMK A01 T00621063  RH  041%=      5-min Rain = 0
KARS 111340Z 02017G22KT 06/M06 A302 RMK A01 T00611062  RH  041%=      5-min Rain = 0
KARS 111345Z 02018KT 06/M06 A302 RMK A01 T00601062  RH  041%=      5-min Rain = 0
KARS 111350Z 02017KT 06/M06 A3021 RMK A01 T00601061  RH  042%=      5-min Rain = 0
KARS 111355Z 02016G21KT 06/M06 A3021 RMK A01 T00591061  RH  042%=      5-min Rain = 0
KARS 111400Z 02019KT 06/M06 A302 RMK A01 T00581060  RH  042%=      5-min Rain = 0
KARS 111405Z 02018KT 06/M06 A302 RMK A01 T00591060  RH  042%=      5-min Rain = 0
KARS 111410Z 02015G20KT 06/M06 A302 RMK A01 T00611059  RH  042%=      5-min Rain = 0
KARS 111415Z 02018KT 06/M06 A3021 RMK A01 T00631061  RH  041%=      5-min Rain = 0
KARS 111420Z 02018KT 06/M06 A3021 RMK A01 T00621062  RH  041%=      5-min Rain = 0
KARS 111425Z 02019G25KT 06/M06 A3022 RMK A01 T00611064  RH  040%=      5-min Rain = 0
KARS 111430Z 02018KT 06/M06 A3022 RMK A01 T00611064  RH  040%=      5-min Rain = 0
KARS 111435Z 02018G24KT 06/M07 A3023 RMK A01 T00611066  RH  040%=      5-min Rain = 0
KARS 111440Z 02016G21KT 06/M07 A3024 RMK A01 T00621066  RH  039%=      5-min Rain = 0
KARS 111445Z 02018G24KT 06/M07 A3024 RMK A01 T00621066  RH  039%=      5-min Rain = 0
KARS 111450Z 02020G26KT 06/M07 A3024 RMK A01 T00621068  RH  039%=      5-min Rain = 0
KARS 111455Z 02019G24KT 06/M07 A3024 RMK A01 T00631067  RH  039%=      5-min Rain = 0
KARS 111500Z 02018G28KT 06/M07 A3024 RMK A01 T00631066  RH  039%=      5-min Rain = 0
KARS 111505Z 02021G27KT 06/M06 A3024 RMK A01 T00631064  RH  040%=      5-min Rain = 0
KARS 111510Z 02021G28KT 06/M06 A3024 RMK A01 T00641064  RH  040%=      5-min Rain = 0
KARS 111515Z 02021G26KT 06/M06 A3025 RMK A01 T00631064  RH  040%=      5-min Rain = 0
KARS 111520Z 02021G26KT 06/M06 A3025 RMK A01 T00621062  RH  041%=      5-min Rain = 0
KARS 111525Z 02021G26KT 06/M06 A3025 RMK A01 T00621060  RH  041%=      5-min Rain = 0
KARS 111530Z 02021KT 06/M06 A3026 RMK A01 T00601060  RH  042%=      5-min Rain = 0
KARS 111535Z 02019G26KT 06/M06 A3026 RMK A01 T00601059  RH  042%=      5-min Rain = 0
KARS 111540Z 02019G25KT 06/M06 A3027 RMK A01 T00591059  RH  043%=      5-min Rain = 0
KARS 111545Z 02021G26KT 06/M06 A3027 RMK A01 T00591059  RH  043%=      5-min Rain = 0
KARS 111550Z 02021KT 06/M06 A3028 RMK A01 T00581060  RH  042%=      5-min Rain = 0
KARS 111555Z 02019G24KT 06/M06 A3028 RMK A01 T00591060  RH  042%=      5-min Rain = 0
KARS 111600Z 01019KT 06/M06 A3028 RMK A01 T00621062  RH  041%=      5-min Rain = 0
KARS 111605Z 02019G24KT 06/M07 A3028 RMK A01 T00621065  RH  040%=      5-min Rain = 0
KARS 111610Z 02019G24KT 06/M06 A3028 RMK A01 T00631064  RH  040%=      5-min Rain = 0
KARS 111615Z 02020G25KT 06/M07 A3028 RMK A01 T00641065  RH  039%=      5-min Rain = 0
KARS 111620Z 02021KT 06/M07 A3028 RMK A01 T00641067  RH  038%=      5-min Rain = 0
KARS 111625Z 02020KT 07/M07 A3028 RMK A01 T00671069  RH  037%=      5-min Rain = 0
KARS 111630Z 02020G25KT 07/M07 A3029 RMK A01 T00731072  RH  035%=      5-min Rain = 0
KARS 111635Z 02019G25KT 08/M07 A3029 RMK A01 T00761073  RH  034%=      5-min Rain = 0
KARS 111640Z 02020G26KT 08/M08 A3029 RMK A01 T00781075  RH  033%=      5-min Rain = 0
KARS 111645Z 02020G26KT 08/M08 A3029 RMK A01 T00801076  RH  032%=      5-min Rain = 0
KARS 111650Z 02020KT 08/M08 A3029 RMK A01 T00811075  RH  032%=      5-min Rain = 0
KARS 111655Z 03018KT 08/M07 A3029 RMK A01 T00831074  RH  032%=      5-min Rain = 0
KARS 111700Z 01020G26KT 08/M07 A3029 RMK A01 T00831074  RH  032%=      5-min Rain = 0
KARS 111705Z 02020G26KT 08/M08 A3029 RMK A01 T00841075  RH  032%=      5-min Rain = 0
KARS 111710Z 02018G23KT 08/M08 A3029 RMK A01 T00841077  RH  031%=      5-min Rain = 0
KARS 111715Z 02018G23KT 08/M08 A3029 RMK A01 T00841076  RH  031%=      5-min Rain = 0
KARS 111720Z 02017KT 09/M07 A3029 RMK A01 T00861074  RH  031%=      5-min Rain = 0
KARS 111725Z 01018G25KT 09/M08 A3029 RMK A01 T00901075  RH  030%=      5-min Rain = 0
KARS 111730Z 02017G22KT 09/M08 A3029 RMK A01 T00931076  RH  030%=      5-min Rain = 0
KARS 111735Z 01019KT 09/M08 A3029 RMK A01 T00891076  RH  030%=      5-min Rain = 0
KARS 111740Z 02017KT 09/M08 A3029 RMK A01 T00891077  RH  030%=      5-min Rain = 0
KARS 111745Z 02017KT 09/M08 A3029 RMK A01 T00901076  RH  030%=      5-min Rain = 0
KARS 111750Z 01017G22KT 09/M07 A3029 RMK A01 T00941074  RH  030%=      5-min Rain = 0
KARS 111755Z 02018G24KT 10/M07 A3029 RMK A01 T01001074  RH  029%=      5-min Rain = 0
KARS 111800Z 01019KT 11/M08 A3029 RMK A01 T01051077  RH  027%=      5-min Rain = 0
KARS 111805Z 01018G24KT 10/M08 A3029 RMK A01 T01001079  RH  028%=      5-min Rain = 0
KARS 111810Z 00018KT 10/M08 A3029 RMK A01 T00981080  RH  028%=      5-min Rain = 0
KARS 111815Z 01018G24KT 10/M08 A3029 RMK A01 T00971081  RH  028%=      5-min Rain = 0
KARS 111820Z 01019G24KT 10/M08 A3029 RMK A01 T00981082  RH  027%=      5-min Rain = 0
KARS 111825Z 01017KT 10/M08 A3029 RMK A01 T00981083  RH  027%=      5-min Rain = 0
KARS 111830Z 02016G22KT 10/M08 A3029 RMK A01 T00991083  RH  027%=      5-min Rain = 0
KARS 111835Z 02014KT 10/M08 A3029 RMK A01 T01001080  RH  027%=      5-min Rain = 0
KARS 111840Z 01017KT 10/M08 A3029 RMK A01 T01031080  RH  027%=      5-min Rain = 0
KARS 111845Z 01016KT 10/M08 A3029 RMK A01 T01031080  RH  027%=      5-min Rain = 0
KARS 111850Z 01015G20KT 11/M08 A3029 RMK A01 T01091077  RH  026%=      5-min Rain = 0
KARS 111855Z 01014G19KT 11/M08 A3029 RMK A01 T01111077  RH  026%=      5-min Rain = 0
KARS 111900Z 01017KT 12/M08 A3028 RMK A01 T01161078  RH  025%=      5-min Rain = 0
KARS 111905Z 01019G24KT 11/M08 A3028 RMK A01 T01121081  RH  025%=      5-min Rain = 0
KARS 111910Z 01017G23KT 11/M08 A3028 RMK A01 T01081083  RH  025%=      5-min Rain = 0
KARS 111915Z 00017G23KT 11/M09 A3028 RMK A01 T01071085  RH  025%=      5-min Rain = 0
KARS 111920Z 01017G23KT 11/M09 A3028 RMK A01 T01091085  RH  025%=      5-min Rain = 0
KARS 111925Z 01018G23KT 11/M08 A3028 RMK A01 T01121084  RH  024%=      5-min Rain = 0
KARS 111930Z 02016G25KT 12/M08 A3027 RMK A01 T01171082  RH  024%=      5-min Rain = 0
KARS 111935Z 01019G24KT 12/M09 A3027 RMK A01 T01191087  RH  023%=      5-min Rain = 0
KARS 111940Z 01014G19KT 11/M09 A3028 RMK A01 T01131087  RH  024%=      5-min Rain = 0
KARS 111945Z 01017G23KT 11/M09 A3028 RMK A01 T01141088  RH  023%=      5-min Rain = 0
KARS 111950Z 01015G20KT 11/M09 A3028 RMK A01 T01131089  RH  023%=      5-min Rain = 0
KARS 111955Z 03015G21KT 12/M09 A3028 RMK A01 T01151090  RH  023%=      5-min Rain = 0
KARS 112000Z 02016G21KT 12/M09 A3027 RMK A01 T01181089  RH  023%=      5-min Rain = 0
KARS 112005Z 02013G22KT 12/M09 A3027 RMK A01 T01171090  RH  023%=      5-min Rain = 0
KARS 112010Z 01016G22KT 12/M09 A3027 RMK A01 T01191092  RH  022%=      5-min Rain = 0
KARS 112015Z 02015G20KT 12/M09 A3027 RMK A01 T01191092  RH  022%=      5-min Rain = 0
KARS 112020Z 01017G25KT 12/M09 A3027 RMK A01 T01201091  RH  022%=      5-min Rain = 0
KARS 112025Z 01017G23KT 12/M09 A3027 RMK A01 T01221092  RH  021%=      5-min Rain = 0
KARS 112030Z 02013KT 12/M09 A3027 RMK A01 T01231092  RH  021%=      5-min Rain = 0
KARS 112035Z 01015G20KT 13/M09 A3027 RMK A01 T01251093  RH  021%=      5-min Rain = 0
KARS 112040Z 01015G20KT 13/M09 A3026 RMK A01 T01251094  RH  021%=      5-min Rain = 0
KARS 112045Z 01013G19KT 12/M09 A3026 RMK A01 T01241094  RH  021%=      5-min Rain = 0
KARS 112050Z 01015G22KT 13/M10 A3026 RMK A01 T01261097  RH  020%=      5-min Rain = 0
KARS 112055Z 01014G21KT 12/M10 A3026 RMK A01 T01211098  RH  020%=      5-min Rain = 0
KARS 112100Z 01016G22KT 12/M10 A3026 RMK A01 T01211098  RH  020%=      5-min Rain = 0
KARS 112105Z 01016G21KT 12/M10 A3026 RMK A01 T01221100  RH  020%=      5-min Rain = 0
KARS 112110Z 02014KT 12/M10 A3026 RMK A01 T01181100  RH  021%=      5-min Rain = 0
KARS 112115Z 00015G21KT 12/M10 A3025 RMK A01 T01201099  RH  021%=      5-min Rain = 0
KARS 112120Z 01014G19KT 12/M10 A3025 RMK A01 T01231100  RH  020%=      5-min Rain = 0
KARS 112125Z 03014KT 12/M10 A3025 RMK A01 T01241100  RH  020%=      5-min Rain = 0
KARS 112130Z 02015KT 13/M10 A3025 RMK A01 T01261101  RH  020%=      5-min Rain = 0
KARS 112135Z 01013G20KT 13/M10 A3025 RMK A01 T01271102  RH  019%=      5-min Rain = 0
KARS 112140Z 01014G19KT 13/M10 A3024 RMK A01 T01251104  RH  019%=      5-min Rain = 0
KARS 112145Z 02015G21KT 13/M11 A3025 RMK A01 T01261106  RH  019%=      5-min Rain = 0
KARS 112150Z 02013G19KT 13/M11 A3025 RMK A01 T01271107  RH  018%=      5-min Rain = 0
KARS 112155Z 02015KT 13/M11 A3025 RMK A01 T01281108  RH  018%=      5-min Rain = 0
KARS 112200Z 02016KT 13/M11 A3025 RMK A01 T01281109  RH  018%=      5-min Rain = 0
KARS 112205Z 02012G17KT 13/M11 A3025 RMK A01 T01291108  RH  018%=      5-min Rain = 0
KARS 112210Z 01014G20KT 13/M11 A3024 RMK A01 T01311108  RH  018%=      5-min Rain = 0
KARS 112215Z 01013G18KT 13/M11 A3024 RMK A01 T01331112  RH  017%=      5-min Rain = 0
KARS 112220Z 01013KT 13/M11 A3025 RMK A01 T01321114  RH  017%=      5-min Rain = 0
KARS 112225Z 01014G21KT 13/M12 A3024 RMK A01 T01321115  RH  017%=      5-min Rain = 0
KARS 112230Z 00012G18KT 13/M12 A3024 RMK A01 T01311115  RH  017%=      5-min Rain = 0
KARS 112235Z 02013G20KT 13/M12 A3024 RMK A01 T01321124  RH  016%=      5-min Rain = 0
KARS 112240Z 02016KT 13/M13 A3024 RMK A01 T01311127  RH  015%=      5-min Rain = 0
KARS 112245Z 01014G19KT 13/M12 A3025 RMK A01 T01311124  RH  016%=      5-min Rain = 0
KARS 112250Z 02011G17KT 13/M12 A3025 RMK A01 T01311124  RH  016%=      5-min Rain = 0
KARS 112255Z 01015KT 13/M12 A3025 RMK A01 T01321122  RH  016%=      5-min Rain = 0
KARS 112300Z 01013KT 13/M12 A3025 RMK A01 T01301123  RH  016%=      5-min Rain = 0
KARS 112305Z 01015KT 13/M12 A3025 RMK A01 T01301124  RH  016%=      5-min Rain = 0
KARS 112310Z 01012KT 13/M12 A3025 RMK A01 T01301122  RH  016%=      5-min Rain = 0
KARS 112315Z 02014KT 13/M13 A3025 RMK A01 T01321125  RH  015%=      5-min Rain = 0
KARS 112320Z 01015G21KT 13/M13 A3026 RMK A01 T01291126  RH  016%=      5-min Rain = 0
KARS 112325Z 01015KT 13/M13 A3026 RMK A01 T01281125  RH  016%=      5-min Rain = 0
KARS 112330Z 02012KT 13/M12 A3026 RMK A01 T01291124  RH  016%=      5-min Rain = 0
KARS 112335Z 02012KT 13/M12 A3026 RMK A01 T01261123  RH  016%=      5-min Rain = 0
KARS 112340Z 02011KT 13/M12 A3026 RMK A01 T01261123  RH  016%=      5-min Rain = 0
KARS 112345Z 01013KT 13/M13 A3026 RMK A01 T01261125  RH  016%=      5-min Rain = 0
KARS 112350Z 01013KT 12/M13 A3026 RMK A01 T01241128  RH  016%=      5-min Rain = 0
KARS 112355Z 01014KT 12/M13 A3026 RMK A01 T01221127  RH  016%=      5-min Rain = 0
KARS 120000Z 01014KT 12/M13 A3027 RMK A01 T01171129  RH  016%=      5-min Rain = 0
KARS 120005Z 01013KT 12/M13 A3027 RMK A01 T01151128  RH  017%=      5-min Rain = 0
KARS 120010Z 02011KT 11/M13 A3027 RMK A01 T01141125  RH  017%=      5-min Rain = 0
KARS 120015Z 02010KT 11/M12 A3027 RMK A01 T01131121  RH  018%=      5-min Rain = 0
KARS 120020Z 02011KT 11/M12 A3027 RMK A01 T01111121  RH  018%=      5-min Rain = 0
KARS 120025Z 01010KT 11/M12 A3027 RMK A01 T01091119  RH  019%=      5-min Rain = 0
KARS 120030Z 02011KT 11/M12 A3027 RMK A01 T01081121  RH  018%=      5-min Rain = 0
KARS 120035Z 02010KT 11/M12 A3027 RMK A01 T01081123  RH  018%=      5-min Rain = 0
KARS 120040Z 02009KT 11/M12 A3027 RMK A01 T01071123  RH  018%=      5-min Rain = 0
KARS 120045Z 02009KT 10/M12 A3028 RMK A01 T01041121  RH  019%=      5-min Rain = 0
KARS 120050Z 01008KT 10/M12 A3028 RMK A01 T01001120  RH  020%=      5-min Rain = 0
KARS 120055Z 01007KT 10/M12 A3028 RMK A01 T00951119  RH  021%=      5-min Rain = 0
KARS 120100Z 01007KT 09/M12 A3029 RMK A01 T00901119  RH  021%=      5-min Rain = 0
KARS 120105Z 02009KT 09/M12 A3029 RMK A01 T00881120  RH  022%=      5-min Rain = 0
KARS 120110Z 02009KT 09/M12 A3029 RMK A01 T00901124  RH  021%=      5-min Rain = 0
KARS 120115Z 03009KT 09/M13 A3029 RMK A01 T00921127  RH  020%=      5-min Rain = 0
KARS 120120Z 03009KT 09/M13 A3029 RMK A01 T00901129  RH  020%=      5-min Rain = 0
KARS 120125Z 03009KT 09/M13 A3029 RMK A01 T00881133  RH  019%=      5-min Rain = 0
KARS 120130Z 03009KT 09/M14 A3029 RMK A01 T00861136  RH  019%=      5-min Rain = 0
KARS 120135Z 03008KT 08/M14 A3029 RMK A01 T00821136  RH  020%=      5-min Rain = 0
KARS 120140Z 03008KT 08/M14 A303 RMK A01 T00781136  RH  020%=      5-min Rain = 0
KARS 120145Z 03007KT 08/M14 A303 RMK A01 T00761135  RH  021%=      5-min Rain = 0
KARS 120150Z 03007KT 07/M14 A303 RMK A01 T00741135  RH  021%=      5-min Rain = 0
KARS 120155Z 02006KT 07/M13 A303 RMK A01 T00711133  RH  022%=      5-min Rain = 0
KARS 120200Z 02006KT 07/M13 A303 RMK A01 T00661133  RH  022%=      5-min Rain = 0
KARS 120205Z 02007KT 06/M13 A3031 RMK A01 T00621132  RH  023%=      5-min Rain = 0
KARS 120210Z 02007KT 06/M13 A3031 RMK A01 T00591132  RH  024%=      5-min Rain = 0
KARS 120215Z 02007KT 06/M13 A3031 RMK A01 T00581132  RH  024%=      5-min Rain = 0
KARS 120220Z 02007KT 06/M13 A3031 RMK A01 T00591133  RH  024%=      5-min Rain = 0
KARS 120225Z 02007KT 06/M13 A3031 RMK A01 T00591133  RH  024%=      5-min Rain = 0
KARS 120230Z 02007KT 06/M13 A3031 RMK A01 T00571133  RH  024%=      5-min Rain = 0
KARS 120235Z 02007KT 06/M13 A3032 RMK A01 T00561132  RH  024%=      5-min Rain = 0
KARS 120240Z 02008KT 06/M13 A3032 RMK A01 T00551132  RH  024%=      5-min Rain = 0
KARS 120245Z 01008KT 05/M13 A3032 RMK A01 T00541130  RH  025%=      5-min Rain = 0
KARS 120250Z 01007KT 05/M13 A3032 RMK A01 T00521129  RH  026%=      5-min Rain = 0
KARS 120255Z 01007KT 05/M13 A3032 RMK A01 T00501127  RH  026%=      5-min Rain = 0
KARS 120300Z 02006KT 05/M13 A3032 RMK A01 T00491128  RH  026%=      5-min Rain = 0
KARS 120305Z 02005KT 05/M13 A3032 RMK A01 T00481127  RH  027%=      5-min Rain = 0
KARS 120310Z 01004KT 05/M13 A3032 RMK A01 T00451127  RH  027%=      5-min Rain = 0
KARS 120315Z 02004KT 04/M13 A3033 RMK A01 T00431127  RH  028%=      5-min Rain = 0
KARS 120320Z 01005KT 04/M13 A3033 RMK A01 T00421128  RH  028%=      5-min Rain = 0
KARS 120325Z 01006KT 04/M13 A3033 RMK A01 T00411129  RH  028%=      5-min Rain = 0
KARS 120330Z 01006KT 04/M13 A3033 RMK A01 T00371129  RH  028%=      5-min Rain = 0
KARS 120335Z 00005KT 03/M13 A3033 RMK A01 T00341129  RH  029%=      5-min Rain = 0
KARS 120340Z 00005KT 03/M13 A3033 RMK A01 T00321128  RH  030%=      5-min Rain = 0
KARS 120345Z 00006KT 03/M13 A3034 RMK A01 T00311126  RH  030%=      5-min Rain = 0
KARS 120350Z 01006KT 03/M13 A3034 RMK A01 T00311127  RH  030%=      5-min Rain = 0
KARS 120355Z 02005KT 03/M13 A3034 RMK A01 T00301128  RH  030%=      5-min Rain = 0
KARS 120400Z 02006KT 03/M13 A3034 RMK A01 T00271129  RH  030%=      5-min Rain = 0
KARS 120405Z 02004KT 02/M13 A3034 RMK A01 T00241132  RH  031%=      5-min Rain = 0
KARS 120410Z 03004KT 02/M13 A3034 RMK A01 T00211133  RH  031%=      5-min Rain = 0
KARS 120415Z 03004KT 02/M13 A3034 RMK A01 T00201134  RH  031%=      5-min Rain = 0
KARS 120420Z 02006KT 02/M13 A3034 RMK A01 T00201134  RH  031%=      5-min Rain = 0
KARS 120425Z 02006KT 02/M13 A3034 RMK A01 T00221133  RH  030%=      5-min Rain = 0
KARS 120430Z 02007KT 02/M13 A3034 RMK A01 T00231133  RH  030%=      5-min Rain = 0
KARS 120435Z 03006KT 03/M13 A3034 RMK A01 T00251133  RH  030%=      5-min Rain = 0
KARS 120440Z 03007KT 03/M13 A3034 RMK A01 T00321133  RH  028%=      5-min Rain = 0
KARS 120445Z 03007KT 04/M13 A3034 RMK A01 T00401134  RH  027%=      5-min Rain = 0
KARS 120450Z 04006KT 04/M13 A3034 RMK A01 T00431133  RH  026%=      5-min Rain = 0
KARS 120455Z 04005KT 04/M13 A3035 RMK A01 T00421132  RH  027%=      5-min Rain = 0

Page generated in 0.0088 seconds.